Time;durP1;ratioP1;P1;durP2;ratioP2;P2;SDS_P1;SDS_P2;PMS_P1;PMS_P2;Temp;Humidity;BMP_temperature;BMP_pressure;BME280_temperature;BME280_humidity;BME280_pressure;Samples;Min_cycle;Max_cycle;Signal;HPM_P1;HPM_P2
2023/07/02 00:01:47;;;;;;;5.50;3.65;;;15.40;99.90;;;;;;5073319;28;20106;-74
2023/07/02 00:04:16;;;;;;;6.07;3.60;;;15.40;99.90;;;;;;5072385;28;20045;-74
2023/07/02 00:06:44;;;;;;;5.90;3.88;;;15.30;99.90;;;;;;5072825;28;20036;-74
2023/07/02 00:09:11;;;;;;;5.35;3.83;;;15.20;99.90;;;;;;5073251;28;20422;-74
2023/07/02 00:11:40;;;;;;;4.85;3.60;;;15.10;99.90;;;;;;5073275;28;20127;-73
2023/07/02 00:14:07;;;;;;;4.85;4.00;;;15.10;99.90;;;;;;5073284;28;20105;-74
2023/07/02 00:16:33;;;;;;;5.20;3.97;;;15.00;99.90;;;;;;5073302;28;20051;-74
2023/07/02 00:18:59;;;;;;;5.88;4.05;;;15.00;99.90;;;;;;5073263;28;20040;-74
2023/07/02 00:21:28;;;;;;;5.25;3.78;;;15.10;99.90;;;;;;5073067;28;20121;-74
2023/07/02 00:23:57;;;;;;;6.45;3.95;;;15.00;99.90;;;;;;5073165;28;20182;-74
2023/07/02 00:26:24;;;;;;;4.95;4.00;;;15.00;99.90;;;;;;5073185;28;20036;-74
2023/07/02 00:28:51;;;;;;;5.53;4.03;;;15.00;99.90;;;;;;5072453;28;20056;-74
2023/07/02 00:31:17;;;;;;;6.03;4.03;;;15.00;99.90;;;;;;5073017;28;20124;-74
2023/07/02 00:33:43;;;;;;;6.28;4.18;;;15.00;99.90;;;;;;5072941;28;20080;-73
2023/07/02 00:36:14;;;;;;;5.75;4.38;;;15.00;99.90;;;;;;5054996;28;20063;-74
2023/07/02 00:38:45;;;;;;;5.72;4.25;;;15.00;99.90;;;;;;5071566;28;20123;-74
2023/07/02 00:41:11;;;;;;;5.30;4.32;;;15.00;99.90;;;;;;5072765;28;20040;-74
2023/07/02 00:43:43;;;;;;;6.03;4.18;;;15.00;99.90;;;;;;5055030;28;20119;-74
2023/07/02 00:46:13;;;;;;;5.38;3.90;;;15.00;99.90;;;;;;5072903;28;20079;-73
2023/07/02 00:48:39;;;;;;;6.32;3.83;;;14.90;99.90;;;;;;5072941;28;20066;-73
2023/07/02 00:51:05;;;;;;;6.63;4.07;;;15.00;99.90;;;;;;5073098;28;20047;-74
2023/07/02 00:53:32;;;;;;;5.07;3.80;;;14.90;99.90;;;;;;5072646;28;20044;-73
2023/07/02 00:55:58;;;;;;;5.63;4.10;;;14.90;99.90;;;;;;5072862;28;20041;-74
2023/07/02 00:58:23;;;;;;;6.63;3.80;;;14.90;99.90;;;;;;5073199;28;20054;-74
2023/07/02 01:00:49;;;;;;;5.43;4.03;;;14.90;99.90;;;;;;5072536;28;20095;-74
2023/07/02 01:03:15;;;;;;;6.15;3.65;;;14.90;99.90;;;;;;5071602;28;20049;-74
2023/07/02 01:05:41;;;;;;;5.20;3.80;;;14.80;99.90;;;;;;5072888;28;20133;-73
2023/07/02 01:08:07;;;;;;;5.35;3.58;;;14.70;99.90;;;;;;5071869;28;20037;-74
2023/07/02 01:10:35;;;;;;;6.90;4.30;;;14.70;99.90;;;;;;5071585;28;20052;-74
2023/07/02 01:13:06;;;;;;;6.05;3.70;;;14.60;99.90;;;;;;5073155;28;20055;-74
2023/07/02 01:15:32;;;;;;;6.55;4.10;;;14.60;99.90;;;;;;5072695;28;20130;-73
2023/07/02 01:17:58;;;;;;;6.28;3.92;;;14.50;99.90;;;;;;5071560;28;20044;-73
2023/07/02 01:20:25;;;;;;;5.40;4.13;;;14.50;99.90;;;;;;5072682;28;20427;-73
2023/07/02 01:22:53;;;;;;;7.57;4.43;;;14.50;99.90;;;;;;5072612;28;20373;-74
2023/07/02 01:25:24;;;;;;;8.15;4.72;;;14.50;99.90;;;;;;5072582;28;20044;-74
2023/07/02 01:27:51;;;;;;;6.97;4.20;;;14.50;99.90;;;;;;5072013;28;20473;-73
2023/07/02 01:30:17;;;;;;;7.25;4.63;;;14.50;99.90;;;;;;5072566;28;20427;-73
2023/07/02 01:32:43;;;;;;;8.15;4.35;;;14.40;99.90;;;;;;5072335;28;20405;-74
2023/07/02 01:35:09;;;;;;;7.85;4.07;;;14.40;99.90;;;;;;5072210;28;20044;-73
2023/07/02 01:37:37;;;;;;;7.45;4.20;;;14.30;99.90;;;;;;5070676;28;20040;-74
2023/07/02 01:40:06;;;;;;;7.97;4.40;;;14.30;99.90;;;;;;5072507;28;20048;-73
2023/07/02 01:42:32;;;;;;;5.95;4.28;;;14.20;99.90;;;;;;5072371;28;20040;-73
2023/07/02 01:44:57;;;;;;;6.97;4.13;;;14.10;99.90;;;;;;5072502;28;20051;-74
2023/07/02 01:47:23;;;;;;;6.40;4.68;;;14.10;99.90;;;;;;5072300;28;20032;-74
2023/07/02 01:49:50;;;;;;;9.50;4.28;;;14.00;99.90;;;;;;5072631;28;20051;-74
2023/07/02 01:52:16;;;;;;;7.55;4.15;;;14.00;99.90;;;;;;5074886;28;20040;-74
2023/07/02 01:54:42;;;;;;;9.10;3.67;;;14.00;99.90;;;;;;5075716;28;20069;-73
2023/07/02 01:57:08;;;;;;;5.28;3.95;;;14.00;99.90;;;;;;5075880;28;20053;-73
2023/07/02 01:59:34;;;;;;;8.38;4.25;;;14.00;99.90;;;;;;5075785;28;20053;-73
2023/07/02 02:02:00;;;;;;;7.05;3.78;;;13.90;99.90;;;;;;5075635;28;20082;-74
2023/07/02 02:04:26;;;;;;;7.53;4.40;;;13.80;99.90;;;;;;5075778;28;20040;-74
2023/07/02 02:06:52;;;;;;;7.10;3.80;;;13.70;99.90;;;;;;5075085;28;20056;-74
2023/07/02 02:09:18;;;;;;;6.40;3.90;;;13.70;99.90;;;;;;5075442;28;20041;-73
2023/07/02 02:11:47;;;;;;;7.78;4.45;;;13.60;99.90;;;;;;5074423;28;20032;-73
2023/07/02 02:14:12;;;;;;;10.15;4.30;;;13.50;99.90;;;;;;5075567;28;20384;-73
2023/07/02 02:16:38;;;;;;;7.82;4.07;;;13.50;99.90;;;;;;5075532;28;20048;-74
2023/07/02 02:19:04;;;;;;;7.70;4.30;;;13.50;99.90;;;;;;5075516;28;20043;-73
2023/07/02 02:21:30;;;;;;;8.68;4.20;;;13.50;99.90;;;;;;5075438;28;20427;-73
2023/07/02 02:23:56;;;;;;;7.65;4.38;;;13.50;99.90;;;;;;5075303;28;20095;-74
2023/07/02 02:26:22;;;;;;;9.80;4.32;;;13.50;99.90;;;;;;5075273;28;20049;-73
2023/07/02 02:28:48;;;;;;;10.02;4.80;;;13.50;99.90;;;;;;5074922;28;20051;-73
2023/07/02 02:31:15;;;;;;;8.60;4.30;;;13.50;99.90;;;;;;5075117;28;20052;-73
2023/07/02 02:33:41;;;;;;;8.55;4.32;;;13.40;99.90;;;;;;5075145;28;20484;-73
2023/07/02 02:36:06;;;;;;;8.50;4.05;;;13.40;99.90;;;;;;5074724;28;20087;-74
2023/07/02 02:38:33;;;;;;;9.43;3.97;;;13.40;99.90;;;;;;5074471;28;20043;-74
2023/07/02 02:41:00;;;;;;;10.15;4.43;;;13.40;99.90;;;;;;5075102;28;20082;-74
2023/07/02 02:43:26;;;;;;;10.02;4.30;;;13.40;99.90;;;;;;5076912;28;20051;-73
2023/07/02 02:45:52;;;;;;;7.10;3.70;;;13.40;99.90;;;;;;5077200;28;20040;-74
2023/07/02 02:48:17;;;;;;;8.80;4.22;;;13.40;99.90;;;;;;5075864;28;20051;-73
2023/07/02 02:50:43;;;;;;;7.63;4.20;;;13.40;99.90;;;;;;5057163;28;20464;-74
2023/07/02 02:53:09;;;;;;;11.85;4.50;;;13.40;99.90;;;;;;5075066;28;20044;-74
2023/07/02 02:55:36;;;;;;;11.02;4.65;;;13.40;99.90;;;;;;5074746;28;20550;-73
2023/07/02 02:58:02;;;;;;;12.27;4.35;;;13.40;99.90;;;;;;5074657;28;20137;-74
2023/07/02 03:00:27;;;;;;;10.77;4.30;;;13.40;99.90;;;;;;5074568;28;20080;-74
2023/07/02 03:02:53;;;;;;;11.93;4.43;;;13.30;99.90;;;;;;5074361;28;20075;-76
2023/07/02 03:05:19;;;;;;;9.75;4.40;;;13.30;99.90;;;;;;5074387;28;20059;-74
2023/07/02 03:07:44;;;;;;;11.68;5.00;;;13.30;99.90;;;;;;5074064;28;20036;-74
2023/07/02 03:10:10;;;;;;;10.00;4.78;;;13.20;99.90;;;;;;5074231;28;20044;-74
2023/07/02 03:12:36;;;;;;;8.60;4.63;;;13.20;99.90;;;;;;5074179;28;20080;-74
2023/07/02 03:15:02;;;;;;;9.20;4.10;;;13.20;99.90;;;;;;5073067;28;20040;-73
2023/07/02 03:17:28;;;;;;;8.57;4.60;;;13.20;99.90;;;;;;5073392;28;20036;-74
2023/07/02 03:19:53;;;;;;;11.38;4.40;;;13.10;99.90;;;;;;5073443;28;20147;-73
2023/07/02 03:22:19;;;;;;;8.48;4.20;;;13.10;99.90;;;;;;5073193;28;20094;-74
2023/07/02 03:24:44;;;;;;;13.50;4.95;;;13.10;99.90;;;;;;5072627;28;20488;-74
2023/07/02 03:27:10;;;;;;;9.98;4.55;;;13.10;99.90;;;;;;5073438;28;20067;-74
2023/07/02 03:29:38;;;;;;;16.00;6.05;;;13.10;99.90;;;;;;5055278;28;20052;-74
2023/07/02 03:32:04;;;;;;;9.40;4.57;;;13.20;99.90;;;;;;5073455;28;20102;-74
2023/07/02 03:34:30;;;;;;;8.95;4.72;;;13.20;99.90;;;;;;5072430;28;20457;-73
2023/07/02 03:36:56;;;;;;;12.73;4.68;;;13.10;99.90;;;;;;5073110;28;20047;-74
2023/07/02 03:39:21;;;;;;;10.35;4.95;;;13.10;99.90;;;;;;5073677;28;20063;-74
2023/07/02 03:41:47;;;;;;;11.82;4.57;;;13.10;99.90;;;;;;5073598;28;20178;-74
2023/07/02 03:44:13;;;;;;;11.00;4.50;;;13.00;99.90;;;;;;5073590;28;20045;-75
2023/07/02 03:46:39;;;;;;;10.38;5.05;;;13.00;99.90;;;;;;5072172;28;20044;-74
2023/07/02 03:49:05;;;;;;;10.98;5.03;;;13.00;99.90;;;;;;5073726;28;20350;-74
2023/07/02 03:51:31;;;;;;;13.90;4.72;;;13.00;99.90;;;;;;5072526;28;20484;-74
2023/07/02 03:53:58;;;;;;;10.93;4.70;;;12.90;99.90;;;;;;5072240;28;20040;-74
2023/07/02 03:56:24;;;;;;;13.88;4.97;;;13.00;99.90;;;;;;5073372;28;20090;-74
2023/07/02 03:58:50;;;;;;;11.45;5.25;;;13.10;99.90;;;;;;5055680;28;20068;-74
2023/07/02 04:01:16;;;;;;;14.65;5.35;;;13.20;99.90;;;;;;5072964;28;20048;-75
2023/07/02 04:03:52;;;;;;;10.50;4.82;;;13.20;99.90;;;;;;5073153;28;20044;-74
2023/07/02 04:06:18;;;;;;;;;;;13.20;99.90;;;;;;5073619;28;20110;-74
2023/07/02 04:08:44;;;;;;;14.98;5.90;;;13.20;99.90;;;;;;5072968;28;19924;-74
2023/07/02 04:11:11;;;;;;;12.32;4.55;;;13.10;99.90;;;;;;5072326;28;20052;-74
2023/07/02 04:13:37;;;;;;;11.00;4.68;;;13.20;99.90;;;;;;5072608;28;20040;-74
2023/07/02 04:16:02;;;;;;;11.23;5.63;;;13.20;99.90;;;;;;5073039;28;20044;-74
2023/07/02 04:18:29;;;;;;;10.63;5.00;;;13.10;99.90;;;;;;5073241;28;20032;-75
2023/07/02 04:20:58;;;;;;;9.88;4.90;;;13.20;99.90;;;;;;5073326;28;20127;-74
2023/07/02 04:23:24;;;;;;;14.23;5.10;;;13.20;99.90;;;;;;5073305;28;20050;-74
2023/07/02 04:25:50;;;;;;;8.98;4.45;;;13.30;99.90;;;;;;5072855;28;20467;-75
2023/07/02 04:28:16;;;;;;;10.02;4.45;;;13.30;99.90;;;;;;5072731;28;20040;-73
2023/07/02 04:30:42;;;;;;;9.35;5.13;;;13.40;99.90;;;;;;5073053;28;20503;-75
2023/07/02 04:33:08;;;;;;;14.45;4.57;;;13.40;99.90;;;;;;5073211;28;20040;-74
2023/07/02 04:35:34;;;;;;;10.18;5.18;;;13.40;99.90;;;;;;5072986;28;20043;-75
2023/07/02 04:38:00;;;;;;;12.57;5.10;;;13.50;99.90;;;;;;5072413;28;20037;-75
2023/07/02 04:40:27;;;;;;;11.73;5.30;;;13.50;99.90;;;;;;5073007;28;20491;-74
2023/07/02 04:42:57;;;;;;;10.52;4.97;;;13.50;99.90;;;;;;5055255;28;20044;-74
2023/07/02 04:45:25;;;;;;;13.40;4.85;;;13.60;99.90;;;;;;5073091;28;20044;-74
2023/07/02 04:47:51;;;;;;;12.20;4.85;;;13.70;99.90;;;;;;5072715;28;20040;-75
2023/07/02 04:50:18;;;;;;;11.52;5.28;;;13.80;99.90;;;;;;5073032;28;20044;-75
2023/07/02 04:52:44;;;;;;;12.90;4.93;;;14.00;99.90;;;;;;5072880;28;20036;-75
2023/07/02 04:55:09;;;;;;;11.70;5.15;;;14.00;99.90;;;;;;5071535;28;20495;-74
2023/07/02 04:57:35;;;;;;;9.93;4.90;;;14.10;99.90;;;;;;5072885;28;20119;-75
2023/07/02 05:00:06;;;;;;;12.57;4.65;;;14.10;99.90;;;;;;5071706;28;20048;-74
2023/07/02 05:02:32;;;;;;;12.35;4.90;;;14.10;99.90;;;;;;5072955;28;20048;-74
2023/07/02 05:04:58;;;;;;;11.52;4.78;;;14.20;99.90;;;;;;5071685;28;20364;-75
2023/07/02 05:07:23;;;;;;;11.35;5.40;;;14.20;99.90;;;;;;5072340;28;20036;-74
2023/07/02 05:09:51;;;;;;;11.82;4.65;;;14.10;99.90;;;;;;5072635;28;20071;-74
2023/07/02 05:12:17;;;;;;;12.15;4.68;;;14.20;99.90;;;;;;5072826;28;20044;-73
2023/07/02 05:14:43;;;;;;;14.50;5.03;;;14.20;99.90;;;;;;5072775;28;20385;-74
2023/07/02 05:17:08;;;;;;;12.07;5.05;;;14.10;99.90;;;;;;5072379;28;20397;-75
2023/07/02 05:19:34;;;;;;;9.18;4.80;;;14.10;99.90;;;;;;5072523;28;20040;-74
2023/07/02 05:22:00;;;;;;;8.93;4.65;;;14.00;99.90;;;;;;5072639;28;20361;-74
2023/07/02 05:24:25;;;;;;;12.65;5.05;;;14.10;99.90;;;;;;5071487;28;20041;-74
2023/07/02 05:26:51;;;;;;;10.30;4.50;;;14.10;99.90;;;;;;5074392;28;20101;-75
2023/07/02 05:29:17;;;;;;;12.30;4.80;;;14.20;99.90;;;;;;5074696;28;20055;-74
2023/07/02 05:31:43;;;;;;;9.82;5.00;;;14.30;99.90;;;;;;5076318;28;20044;-75
2023/07/02 05:34:08;;;;;;;12.90;4.95;;;14.40;99.90;;;;;;5076271;28;20048;-76
2023/07/02 05:36:34;;;;;;;13.43;5.32;;;14.50;99.90;;;;;;5075882;28;20036;-74
2023/07/02 05:39:00;;;;;;;11.43;5.00;;;14.50;99.90;;;;;;5076163;28;20040;-77
2023/07/02 05:41:30;;;;;;;13.35;5.47;;;14.60;99.90;;;;;;5076234;28;20040;-75
2023/07/02 05:43:56;;;;;;;11.65;5.03;;;14.70;99.90;;;;;;5058989;28;20144;-74
2023/07/02 05:46:22;;;;;;;13.55;4.78;;;14.80;99.90;;;;;;5076150;28;20492;-76
2023/07/02 05:48:48;;;;;;;13.32;5.10;;;14.80;99.90;;;;;;5075902;28;20033;-77
2023/07/02 05:51:13;;;;;;;11.00;5.40;;;14.90;99.90;;;;;;5076027;28;20048;-76
2023/07/02 05:53:39;;;;;;;9.73;4.43;;;15.00;99.90;;;;;;5075828;28;20050;-75
2023/07/02 05:56:05;;;;;;;10.32;4.93;;;15.10;99.90;;;;;;5075480;28;20036;-76
2023/07/02 05:58:30;;;;;;;12.93;5.28;;;15.20;99.90;;;;;;5075718;28;20040;-77
2023/07/02 06:00:56;;;;;;;9.55;5.00;;;15.20;99.90;;;;;;5075932;28;20097;-77
2023/07/02 06:03:22;;;;;;;11.48;4.60;;;15.30;99.90;;;;;;5075701;28;20068;-78
2023/07/02 06:05:48;;;;;;;11.88;4.80;;;15.30;99.90;;;;;;5076061;28;20044;-78
2023/07/02 06:08:16;;;;;;;11.95;4.82;;;15.40;99.90;;;;;;5075170;28;20119;-76
2023/07/02 06:10:43;;;;;;;9.85;5.03;;;15.50;99.90;;;;;;5075252;28;20468;-76
2023/07/02 06:13:08;;;;;;;13.80;5.00;;;15.50;99.90;;;;;;5075394;28;20083;-76
2023/07/02 06:15:34;;;;;;;12.70;4.75;;;15.60;99.90;;;;;;5074527;28;20473;-76
2023/07/02 06:18:00;;;;;;;10.38;5.00;;;15.70;99.90;;;;;;5075416;28;20071;-76
2023/07/02 06:20:25;;;;;;;10.27;4.70;;;15.80;99.90;;;;;;5075016;28;20048;-78
2023/07/02 06:22:51;;;;;;;13.40;5.03;;;15.90;99.90;;;;;;5075539;28;20040;-76
2023/07/02 06:25:17;;;;;;;12.60;5.13;;;16.00;99.90;;;;;;5075748;28;20036;-77
2023/07/02 06:27:42;;;;;;;15.57;4.43;;;16.00;99.90;;;;;;5075303;28;20076;-76
2023/07/02 06:30:08;;;;;;;11.38;4.88;;;16.10;99.90;;;;;;5075237;28;20336;-76
2023/07/02 06:32:34;;;;;;;12.20;5.35;;;16.20;99.90;;;;;;5075206;28;20385;-77
2023/07/02 06:35:00;;;;;;;12.65;4.57;;;16.20;99.90;;;;;;5075245;28;20041;-77
2023/07/02 06:37:25;;;;;;;10.70;4.97;;;16.30;99.90;;;;;;5074054;28;20043;-65
2023/07/02 06:39:51;;;;;;;9.68;4.65;;;16.40;99.90;;;;;;5073827;28;20063;-65
2023/07/02 06:42:17;;;;;;;10.40;4.55;;;16.50;99.90;;;;;;5074040;28;20128;-65
2023/07/02 06:44:43;;;;;;;14.25;5.30;;;16.70;99.90;;;;;;5073730;28;20052;-65
2023/07/02 06:47:09;;;;;;;10.43;4.40;;;16.80;99.90;;;;;;5074865;28;20131;-65
2023/07/02 06:49:34;;;;;;;12.00;4.03;;;16.70;99.90;;;;;;5074515;28;20067;-65
2023/07/02 06:52:00;;;;;;;11.35;4.20;;;16.70;99.90;;;;;;5073474;28;20376;-66
2023/07/02 06:54:26;;;;;;;13.63;3.95;;;16.60;99.90;;;;;;5074764;28;20372;-65
2023/07/02 06:56:52;;;;;;;11.77;4.85;;;16.60;99.90;;;;;;5074588;28;20040;-65
2023/07/02 06:59:22;;;;;;;9.32;4.45;;;16.70;99.90;;;;;;5074647;28;20491;-65
2023/07/02 07:01:49;;;;;;;13.70;4.75;;;16.80;99.90;;;;;;5074620;28;20128;-63
2023/07/02 07:04:14;;;;;;;12.18;4.28;;;16.70;99.90;;;;;;5074688;28;20464;-64
2023/07/02 07:06:40;;;;;;;8.57;4.15;;;16.70;99.90;;;;;;5074296;28;20331;-65
2023/07/02 07:09:06;;;;;;;7.65;3.40;;;16.70;99.90;;;;;;5074372;28;20032;-64
2023/07/02 07:11:32;;;;;;;9.63;3.97;;;16.70;99.90;;;;;;5074393;28;20111;-64
2023/07/02 07:13:57;;;;;;;9.18;3.50;;;16.60;99.90;;;;;;5074142;28;20056;-64
2023/07/02 07:16:23;;;;;;;12.93;4.80;;;16.60;99.90;;;;;;5073709;28;20066;-64
2023/07/02 07:18:49;;;;;;;8.57;3.42;;;16.70;99.90;;;;;;5071300;28;20040;-64
2023/07/02 07:21:14;;;;;;;9.57;4.05;;;16.80;99.90;;;;;;5069274;28;20048;-64
2023/07/02 07:23:40;;;;;;;10.60;3.95;;;16.80;99.90;;;;;;5072991;28;20045;-64
2023/07/02 07:26:06;;;;;;;6.65;3.28;;;16.80;99.90;;;;;;5073806;28;20491;-65
2023/07/02 07:28:32;;;;;;;7.43;3.88;;;16.60;99.90;;;;;;5072438;28;20032;-64
2023/07/02 07:30:58;;;;;;;8.77;3.80;;;16.60;99.90;;;;;;5073867;28;20098;-63
2023/07/02 07:33:23;;;;;;;6.93;3.10;;;16.50;99.90;;;;;;5073564;28;20036;-64
2023/07/02 07:35:49;;;;;;;10.40;3.55;;;16.50;99.90;;;;;;5064036;28;20547;-65
2023/07/02 07:38:15;;;;;;;8.40;3.45;;;16.40;99.90;;;;;;5070875;28;20469;-65
2023/07/02 07:40:41;;;;;;;8.73;3.30;;;16.40;99.90;;;;;;5072283;28;20037;-65
2023/07/02 07:43:06;;;;;;;9.98;3.95;;;16.50;99.90;;;;;;5072252;28;20530;-65
2023/07/02 07:45:34;;;;;;;5.53;2.97;;;16.50;99.90;;;;;;5073498;28;20119;-64
2023/07/02 07:48:00;;;;;;;9.07;3.20;;;16.60;99.90;;;;;;5071859;28;20135;-64
2023/07/02 07:50:25;;;;;;;11.07;3.42;;;16.80;99.90;;;;;;5072490;28;20456;-65
2023/07/02 07:52:51;;;;;;;8.60;3.38;;;17.00;99.90;;;;;;5072943;28;20045;-65
2023/07/02 07:55:17;;;;;;;8.85;3.38;;;17.10;99.90;;;;;;5072720;28;20079;-65
2023/07/02 07:57:43;;;;;;;10.38;3.40;;;17.20;99.90;;;;;;5072574;28;20037;-65
2023/07/02 08:00:12;;;;;;;7.72;3.47;;;17.50;99.90;;;;;;5073254;28;20085;-65
2023/07/02 08:02:38;;;;;;;7.63;3.20;;;17.70;99.90;;;;;;5072521;28;20044;-65
2023/07/02 08:05:04;;;;;;;6.30;3.50;;;17.80;99.90;;;;;;5072821;28;20401;-64
2023/07/02 08:07:32;;;;;;;7.40;3.60;;;17.70;99.90;;;;;;5072175;28;20074;-65
2023/07/02 08:09:58;;;;;;;8.15;3.50;;;17.70;99.90;;;;;;5072564;28;20131;-65
2023/07/02 08:12:23;;;;;;;5.28;2.92;;;17.70;99.90;;;;;;5070974;28;20072;-64
2023/07/02 08:14:49;;;;;;;8.70;3.38;;;17.40;99.90;;;;;;5072608;28;20075;-65
2023/07/02 08:17:15;;;;;;;8.75;3.05;;;17.20;99.90;;;;;;5072526;28;20049;-64
2023/07/02 08:19:41;;;;;;;5.82;3.10;;;17.00;99.90;;;;;;5072450;28;20095;-65
2023/07/02 08:22:07;;;;;;;6.57;2.65;;;17.00;99.90;;;;;;5072554;28;20373;-65
2023/07/02 08:24:33;;;;;;;5.78;3.03;;;17.10;99.90;;;;;;5072862;28;20040;-64
2023/07/02 08:26:59;;;;;;;4.28;2.42;;;17.50;99.90;;;;;;5072154;28;20382;-63
2023/07/02 08:29:25;;;;;;;6.13;3.00;;;17.70;99.90;;;;;;5072592;28;20048;-63
2023/07/02 08:31:50;;;;;;;8.88;2.50;;;17.90;99.90;;;;;;5071733;28;20078;-63
2023/07/02 08:34:16;;;;;;;5.20;2.63;;;18.10;99.90;;;;;;5071972;28;20539;-64
2023/07/02 08:36:43;;;;;;;6.28;2.45;;;18.20;99.90;;;;;;5072413;28;20044;-63
2023/07/02 08:39:09;;;;;;;6.32;2.92;;;18.30;99.90;;;;;;5071452;28;20425;-64
2023/07/02 08:41:48;;;;;;;3.55;1.80;;;18.20;99.90;;;;;;5071929;28;20155;-63
2023/07/02 08:44:18;;;;;;;4.90;1.95;;;17.90;99.90;;;;;;5071961;28;20044;-63
2023/07/02 08:46:44;;;;;;;4.72;2.42;;;17.70;99.90;;;;;;5070837;28;20036;-63
2023/07/02 08:49:11;;;;;;;5.78;2.00;;;17.50;99.90;;;;;;5070887;28;20044;-64
2023/07/02 08:51:37;;;;;;;4.65;2.28;;;17.40;99.90;;;;;;5072265;28;20127;-63
2023/07/02 08:54:03;;;;;;;7.03;2.33;;;17.30;99.90;;;;;;5072072;28;20155;-63
2023/07/02 08:56:29;;;;;;;5.93;2.25;;;17.40;99.90;;;;;;5072442;28;20051;-62
2023/07/02 08:58:55;;;;;;;5.32;1.85;;;17.50;99.90;;;;;;5072072;28;20041;-63
2023/07/02 09:01:21;;;;;;;5.72;2.20;;;17.50;99.90;;;;;;5075126;28;20260;-64
2023/07/02 09:03:47;;;;;;;5.50;1.95;;;17.50;99.90;;;;;;5075488;28;20377;-63
2023/07/02 09:06:13;;;;;;;4.28;2.03;;;17.60;99.90;;;;;;5076125;28;20036;-63
2023/07/02 09:08:39;;;;;;;4.63;2.03;;;17.70;99.90;;;;;;5075356;28;20074;-63
2023/07/02 09:11:19;;;;;;;6.00;1.75;;;17.80;99.90;;;;;;5076000;28;20040;-64
2023/07/02 09:13:46;;;;;;;4.72;2.13;;;17.70;99.90;;;;;;5058463;28;20048;-63
2023/07/02 09:16:22;;;;;;;6.25;2.17;;;17.60;99.90;;;;;;5075658;28;20481;-63
2023/07/02 09:19:01;;;;;;;3.53;2.20;;;17.50;99.90;;;;;;5075778;28;20063;-62
2023/07/02 09:21:42;;;;;;;9.48;2.10;;;17.30;99.90;;;;;;5075939;28;20386;-63
2023/07/02 09:24:23;;;;;;;6.80;2.00;;;17.20;99.90;;;;;;5059445;28;20052;-64
2023/07/02 09:26:51;;;;;;;3.15;2.08;;;17.10;99.90;;;;;;5076046;28;20395;-64
2023/07/02 09:29:31;;;;;;;4.72;2.25;;;17.20;99.90;;;;;;5075233;28;20044;-64
2023/07/02 09:32:04;;;;;;;5.85;2.00;;;17.20;99.90;;;;;;5075562;28;20048;-64
2023/07/02 09:34:38;;;;;;;4.72;2.40;;;17.10;99.90;;;;;;5055349;28;20045;-64
2023/07/02 09:37:05;;;;;;;5.10;2.20;;;17.30;99.90;;;;;;5064335;28;20044;-64
2023/07/02 09:39:33;;;;;;;4.43;2.50;;;17.50;99.90;;;;;;5075832;28;20075;-64
2023/07/02 09:42:05;;;;;;;4.75;2.10;;;17.60;99.90;;;;;;5074148;28;20047;-64
2023/07/02 09:44:32;;;;;;;5.63;2.47;;;17.70;99.90;;;;;;5075256;28;20071;-64
2023/07/02 09:47:04;;;;;;;6.18;2.38;;;17.90;99.90;;;;;;5074450;28;20076;-64
2023/07/02 09:49:46;;;;;;;4.70;1.90;;;18.10;99.90;;;;;;5075388;28;20048;-64
2023/07/02 09:52:14;;;;;;;4.50;2.08;;;18.30;99.90;;;;;;5075387;28;20048;-65
2023/07/02 09:54:41;;;;;;;5.57;2.60;;;18.50;99.90;;;;;;5074706;28;20079;-66
2023/07/02 09:57:07;;;;;;;5.22;2.50;;;18.60;99.90;;;;;;5074346;28;20468;-64
2023/07/02 09:59:34;;;;;;;4.20;2.30;;;18.50;99.90;;;;;;5075694;28;20045;-64
2023/07/02 10:01:59;;;;;;;5.13;2.80;;;18.40;99.90;;;;;;5075189;28;20040;-64
2023/07/02 10:04:25;;;;;;;5.35;2.45;;;18.50;99.90;;;;;;5075118;28;20374;-64
2023/07/02 10:06:56;;;;;;;8.10;3.03;;;18.70;99.90;;;;;;5075576;28;20040;-64
2023/07/02 10:09:39;;;;;;;4.85;2.25;;;18.80;99.90;;;;;;5075364;28;20039;-64
2023/07/02 10:12:26;;;;;;;9.20;2.97;;;19.00;99.90;;;;;;5074409;28;20469;-63
2023/07/02 10:14:56;;;;;;;6.78;2.75;;;18.80;99.90;;;;;;5068851;28;20041;-64
2023/07/02 10:17:27;;;;;;;5.65;2.95;;;18.30;99.90;;;;;;5065602;28;20174;-64
2023/07/02 10:19:54;;;;;;;4.18;2.78;;;18.10;99.90;;;;;;5059356;28;20041;-64
2023/07/02 10:22:20;;;;;;;7.13;2.75;;;18.00;99.90;;;;;;5066966;28;20052;-64
2023/07/02 10:24:54;;;;;;;5.32;2.60;;;18.00;99.90;;;;;;5067827;28;20048;-64
2023/07/02 10:27:20;;;;;;;4.75;2.80;;;17.90;99.90;;;;;;5065437;28;20055;-64
2023/07/02 10:29:50;;;;;;;5.15;2.50;;;18.00;99.90;;;;;;5063759;28;20120;-63
2023/07/02 10:32:29;;;;;;;4.65;2.63;;;18.00;99.90;;;;;;5063912;28;20040;-63
2023/07/02 10:34:55;;;;;;;4.38;2.20;;;18.00;99.90;;;;;;5072731;28;20123;-63
2023/07/02 10:37:21;;;;;;;6.10;2.28;;;18.10;99.90;;;;;;5073132;28;20508;-63
2023/07/02 10:39:47;;;;;;;4.95;2.00;;;18.20;99.90;;;;;;5074321;28;20044;-63
2023/07/02 10:42:12;;;;;;;9.05;2.45;;;18.30;99.90;;;;;;5074640;28;20047;-63
2023/07/02 10:44:50;;;;;;;4.55;2.55;;;18.30;99.90;;;;;;5074577;28;20055;-64
2023/07/02 10:47:16;;;;;;;8.38;2.30;;;18.50;99.90;;;;;;5072691;28;20044;-63
2023/07/02 10:49:41;;;;;;;5.05;2.42;;;18.50;99.90;;;;;;5073534;28;20044;-65
2023/07/02 10:52:07;;;;;;;4.72;2.10;;;18.40;99.90;;;;;;5073361;28;20109;-64
2023/07/02 10:54:46;;;;;;;7.45;2.30;;;18.40;99.90;;;;;;5073113;28;20128;-64
2023/07/02 10:57:20;;;;;;;6.80;2.40;;;18.30;99.90;;;;;;5055982;28;20080;-64
2023/07/02 10:59:46;;;;;;;7.18;2.95;;;18.40;99.90;;;;;;5073043;28;20056;-64
2023/07/02 11:02:12;;;;;;;5.95;2.60;;;18.60;99.90;;;;;;5074039;28;20040;-64
2023/07/02 11:04:38;;;;;;;6.20;2.72;;;18.80;99.90;;;;;;5072847;28;20043;-65
2023/07/02 11:07:04;;;;;;;6.63;2.90;;;19.00;99.90;;;;;;5073294;28;20044;-64
2023/07/02 11:09:30;;;;;;;5.43;2.50;;;19.10;99.90;;;;;;5074038;28;20032;-64
2023/07/02 11:11:58;;;;;;;4.35;2.78;;;18.90;99.90;;;;;;5074381;28;20473;-63
2023/07/02 11:14:41;;;;;;;6.05;2.55;;;18.60;99.90;;;;;;5073821;28;20055;-63
2023/07/02 11:17:07;;;;;;;5.40;2.50;;;18.30;99.90;;;;;;5074254;28;20440;-63
2023/07/02 11:19:34;;;;;;;6.57;2.75;;;18.10;99.90;;;;;;5074450;28;20082;-64
2023/07/02 11:22:00;;;;;;;7.55;2.40;;;18.10;99.90;;;;;;5074030;28;20385;-63
2023/07/02 11:24:34;;;;;;;6.60;2.50;;;18.10;99.90;;;;;;5073647;28;20421;-64
2023/07/02 11:27:02;;;;;;;7.45;2.88;;;18.40;99.90;;;;;;5073989;28;20036;-64
2023/07/02 11:29:31;;;;;;;6.78;2.40;;;18.50;99.90;;;;;;5073823;28;20064;-64
2023/07/02 11:32:09;;;;;;;5.20;2.63;;;18.70;99.90;;;;;;5073665;28;20127;-64
2023/07/02 11:34:35;;;;;;;7.22;2.63;;;18.60;99.90;;;;;;5074023;28;20044;-64
2023/07/02 11:37:01;;;;;;;8.02;2.50;;;18.40;99.90;;;;;;5073226;28;20067;-64
2023/07/02 11:39:27;;;;;;;6.75;2.63;;;18.20;99.90;;;;;;5073531;28;20485;-63
2023/07/02 11:41:53;;;;;;;4.70;2.20;;;18.10;99.90;;;;;;5073715;28;20047;-63
2023/07/02 11:44:18;;;;;;;8.13;2.70;;;18.00;99.90;;;;;;5073404;28;20165;-63
2023/07/02 11:46:46;;;;;;;4.57;2.35;;;18.00;99.90;;;;;;5073131;28;20040;-64
2023/07/02 11:49:12;;;;;;;6.32;2.42;;;18.00;99.90;;;;;;5073033;28;20476;-64
2023/07/02 11:51:39;;;;;;;5.90;2.78;;;18.00;99.90;;;;;;5073024;28;20487;-64
2023/07/02 11:54:06;;;;;;;5.82;2.70;;;17.90;99.90;;;;;;5073314;28;20083;-64
2023/07/02 11:56:33;;;;;;;6.20;1.98;;;17.80;99.90;;;;;;5073412;28;20043;-64
2023/07/02 11:58:59;;;;;;;6.47;2.40;;;17.70;99.90;;;;;;5073163;28;20152;-64
2023/07/02 12:01:24;;;;;;;4.43;2.38;;;17.70;99.90;;;;;;5073170;28;20119;-64
2023/07/02 12:03:50;;;;;;;6.22;2.33;;;17.70;99.90;;;;;;5073274;28;20037;-64
2023/07/02 12:06:16;;;;;;;5.47;2.08;;;17.80;99.90;;;;;;5073318;28;20048;-64
2023/07/02 12:08:42;;;;;;;4.47;2.40;;;17.90;99.90;;;;;;5072619;28;20508;-64
2023/07/02 12:11:08;;;;;;;6.15;2.20;;;18.10;99.90;;;;;;5073190;28;20232;-64
2023/07/02 12:13:33;;;;;;;6.93;2.20;;;18.10;99.90;;;;;;5073071;28;20040;-64
2023/07/02 12:15:59;;;;;;;3.72;1.90;;;18.20;99.90;;;;;;5072814;28;20036;-63
2023/07/02 12:18:25;;;;;;;5.32;1.95;;;18.00;99.90;;;;;;5073129;28;20461;-64
2023/07/02 12:20:51;;;;;;;5.22;2.28;;;17.90;99.90;;;;;;5071679;28;20067;-64
2023/07/02 12:23:17;;;;;;;6.20;2.45;;;17.80;99.90;;;;;;5073022;28;20040;-63
2023/07/02 12:25:42;;;;;;;4.57;1.95;;;17.90;99.90;;;;;;5073283;28;20539;-63
2023/07/02 12:28:08;;;;;;;6.53;2.20;;;18.20;99.90;;;;;;5072840;28;20119;-64
2023/07/02 12:30:34;;;;;;;4.80;2.00;;;18.50;99.90;;;;;;5072765;28;20056;-64
2023/07/02 12:32:59;;;;;;;4.38;1.75;;;18.70;99.90;;;;;;5072952;28;20489;-63
2023/07/02 12:35:25;;;;;;;7.97;2.45;;;18.90;99.90;;;;;;5072615;28;20040;-63
2023/07/02 12:37:52;;;;;;;5.10;1.98;;;19.20;99.90;;;;;;5072044;28;20116;-63
2023/07/02 12:40:20;;;;;;;3.35;1.63;;;19.50;99.90;;;;;;5072974;28;20091;-64
2023/07/02 12:42:47;;;;;;;3.38;1.60;;;19.30;99.90;;;;;;5072976;28;20083;-64